sensor_id;sensor_type;location;lat;lon;timestamp;pressure;altitude;pressure_sealevel;temperature;humidity
30967;BME280;17649;51.836;8.330;2024-01-25T00:01:25;101930.03;;;9.40;100.00
30967;BME280;17649;51.836;8.330;2024-01-25T00:04:25;101927.31;;;9.44;100.00
30967;BME280;17649;51.836;8.330;2024-01-25T00:07:25;101928.34;;;9.39;100.00
30967;BME280;17649;51.836;8.330;2024-01-25T00:10:25;101927.09;;;9.50;100.00
30967;BME280;17649;51.836;8.330;2024-01-25T00:13:25;101922.19;;;9.43;100.00
30967;BME280;17649;51.836;8.330;2024-01-25T00:16:26;101925.88;;;9.34;100.00
30967;BME280;17649;51.836;8.330;2024-01-25T00:19:27;101929.41;;;9.32;100.00
30967;BME280;17649;51.836;8.330;2024-01-25T00:22:27;101919.97;;;9.31;100.00
30967;BME280;17649;51.836;8.330;2024-01-25T00:25:27;101913.00;;;9.33;100.00
30967;BME280;17649;51.836;8.330;2024-01-25T00:28:27;101930.53;;;9.21;100.00
30967;BME280;17649;51.836;8.330;2024-01-25T00:31:28;101918.38;;;9.26;100.00
30967;BME280;17649;51.836;8.330;2024-01-25T00:34:29;101919.69;;;9.40;100.00
30967;BME280;17649;51.836;8.330;2024-01-25T00:37:30;101926.50;;;9.13;100.00
30967;BME280;17649;51.836;8.330;2024-01-25T00:40:30;101926.50;;;9.13;100.00
30967;BME280;17649;51.836;8.330;2024-01-25T00:43:30;101936.03;;;9.11;100.00
30967;BME280;17649;51.836;8.330;2024-01-25T00:46:31;101939.03;;;9.26;100.00
30967;BME280;17649;51.836;8.330;2024-01-25T00:49:31;101932.34;;;8.88;100.00
30967;BME280;17649;51.836;8.330;2024-01-25T00:52:32;101943.78;;;8.80;100.00
30967;BME280;17649;51.836;8.330;2024-01-25T00:55:32;101943.06;;;8.73;100.00
30967;BME280;17649;51.836;8.330;2024-01-25T00:58:33;101952.41;;;8.77;100.00
30967;BME280;17649;51.836;8.330;2024-01-25T01:01:33;101948.88;;;8.81;100.00
30967;BME280;17649;51.836;8.330;2024-01-25T01:04:34;101954.63;;;8.91;100.00
30967;BME280;17649;51.836;8.330;2024-01-25T01:07:34;101959.16;;;8.83;100.00
30967;BME280;17649;51.836;8.330;2024-01-25T01:10:34;101961.22;;;8.70;100.00
30967;BME280;17649;51.836;8.330;2024-01-25T01:13:34;101963.22;;;8.93;100.00
30967;BME280;17649;51.836;8.330;2024-01-25T01:16:35;101972.19;;;8.78;100.00
30967;BME280;17649;51.836;8.330;2024-01-25T01:19:36;101961.91;;;9.09;100.00
30967;BME280;17649;51.836;8.330;2024-01-25T01:22:36;101962.94;;;9.02;100.00
30967;BME280;17649;51.836;8.330;2024-01-25T01:25:36;101969.56;;;9.12;100.00
30967;BME280;17649;51.836;8.330;2024-01-25T01:28:36;101965.00;;;9.20;100.00
30967;BME280;17649;51.836;8.330;2024-01-25T01:31:37;101965.13;;;8.85;100.00
30967;BME280;17649;51.836;8.330;2024-01-25T01:34:37;101954.72;;;8.88;100.00
30967;BME280;17649;51.836;8.330;2024-01-25T01:37:38;101969.63;;;8.77;100.00
30967;BME280;17649;51.836;8.330;2024-01-25T01:40:38;101957.09;;;8.95;100.00
30967;BME280;17649;51.836;8.330;2024-01-25T01:43:39;101974.34;;;8.61;100.00
30967;BME280;17649;51.836;8.330;2024-01-25T01:46:39;101955.09;;;8.74;100.00
30967;BME280;17649;51.836;8.330;2024-01-25T01:49:42;101970.38;;;8.48;100.00
30967;BME280;17649;51.836;8.330;2024-01-25T01:52:43;101962.47;;;8.55;100.00
30967;BME280;17649;51.836;8.330;2024-01-25T01:55:43;101967.03;;;8.44;100.00
30967;BME280;17649;51.836;8.330;2024-01-25T01:58:45;101973.16;;;8.40;100.00
30967;BME280;17649;51.836;8.330;2024-01-25T02:01:46;101967.91;;;8.43;100.00
30967;BME280;17649;51.836;8.330;2024-01-25T02:04:47;101965.69;;;8.28;100.00
30967;BME280;17649;51.836;8.330;2024-01-25T02:07:47;101964.19;;;8.18;100.00
30967;BME280;17649;51.836;8.330;2024-01-25T02:10:47;101966.69;;;8.22;100.00
30967;BME280;17649;51.836;8.330;2024-01-25T02:13:47;101979.75;;;8.15;100.00
30967;BME280;17649;51.836;8.330;2024-01-25T02:16:48;101988.25;;;8.20;100.00
30967;BME280;17649;51.836;8.330;2024-01-25T02:19:48;102002.88;;;8.19;100.00
30967;BME280;17649;51.836;8.330;2024-01-25T02:22:48;102011.28;;;8.26;100.00
30967;BME280;17649;51.836;8.330;2024-01-25T02:25:49;102011.13;;;8.33;100.00
30967;BME280;17649;51.836;8.330;2024-01-25T02:28:49;102016.75;;;8.12;100.00
30967;BME280;17649;51.836;8.330;2024-01-25T02:31:49;102024.16;;;8.27;100.00
30967;BME280;17649;51.836;8.330;2024-01-25T02:34:49;102015.81;;;8.16;100.00
30967;BME280;17649;51.836;8.330;2024-01-25T02:37:49;102017.66;;;8.11;100.00
30967;BME280;17649;51.836;8.330;2024-01-25T02:40:50;102020.31;;;8.08;100.00
30967;BME280;17649;51.836;8.330;2024-01-25T02:43:51;102007.56;;;8.00;100.00
30967;BME280;17649;51.836;8.330;2024-01-25T02:46:51;102011.44;;;7.81;100.00
30967;BME280;17649;51.836;8.330;2024-01-25T02:49:51;102019.00;;;7.89;100.00
30967;BME280;17649;51.836;8.330;2024-01-25T02:52:53;102020.72;;;7.90;100.00
30967;BME280;17649;51.836;8.330;2024-01-25T02:55:53;102032.97;;;7.78;100.00
30967;BME280;17649;51.836;8.330;2024-01-25T02:58:53;102030.75;;;7.62;100.00
30967;BME280;17649;51.836;8.330;2024-01-25T03:01:54;102054.56;;;7.71;100.00
30967;BME280;17649;51.836;8.330;2024-01-25T03:04:54;102065.88;;;7.66;100.00
30967;BME280;17649;51.836;8.330;2024-01-25T03:07:55;102064.84;;;7.73;100.00
30967;BME280;17649;51.836;8.330;2024-01-25T03:10:55;102072.28;;;7.87;100.00
30967;BME280;17649;51.836;8.330;2024-01-25T03:13:58;102071.09;;;8.04;100.00
30967;BME280;17649;51.836;8.330;2024-01-25T03:16:58;102061.00;;;7.94;100.00
30967;BME280;17649;51.836;8.330;2024-01-25T03:19:58;102066.69;;;8.08;100.00
30967;BME280;17649;51.836;8.330;2024-01-25T03:22:58;102060.28;;;8.26;100.00
30967;BME280;17649;51.836;8.330;2024-01-25T03:26:01;102063.28;;;8.07;100.00
30967;BME280;17649;51.836;8.330;2024-01-25T03:29:01;102059.06;;;8.03;100.00
30967;BME280;17649;51.836;8.330;2024-01-25T03:32:01;102047.03;;;8.02;100.00
30967;BME280;17649;51.836;8.330;2024-01-25T03:35:02;102041.66;;;7.74;100.00
30967;BME280;17649;51.836;8.330;2024-01-25T03:38:02;102056.63;;;7.97;100.00
30967;BME280;17649;51.836;8.330;2024-01-25T03:41:02;102052.84;;;7.72;100.00
30967;BME280;17649;51.836;8.330;2024-01-25T03:44:03;102062.69;;;7.53;100.00
30967;BME280;17649;51.836;8.330;2024-01-25T03:47:03;102056.84;;;7.45;100.00
30967;BME280;17649;51.836;8.330;2024-01-25T03:50:03;102053.63;;;7.34;100.00
30967;BME280;17649;51.836;8.330;2024-01-25T03:53:04;102067.25;;;7.39;100.00
30967;BME280;17649;51.836;8.330;2024-01-25T03:56:10;102069.19;;;7.26;100.00
30967;BME280;17649;51.836;8.330;2024-01-25T03:59:11;102071.50;;;7.40;100.00
30967;BME280;17649;51.836;8.330;2024-01-25T04:02:13;102079.31;;;7.37;100.00
30967;BME280;17649;51.836;8.330;2024-01-25T04:05:13;102085.66;;;7.17;100.00
30967;BME280;17649;51.836;8.330;2024-01-25T04:08:14;102084.84;;;7.14;100.00
30967;BME280;17649;51.836;8.330;2024-01-25T04:11:14;102084.53;;;7.32;100.00
30967;BME280;17649;51.836;8.330;2024-01-25T04:14:16;102093.81;;;7.41;100.00
30967;BME280;17649;51.836;8.330;2024-01-25T04:17:16;102100.34;;;7.59;100.00
30967;BME280;17649;51.836;8.330;2024-01-25T04:20:16;102098.84;;;7.48;100.00
30967;BME280;17649;51.836;8.330;2024-01-25T04:23:16;102090.16;;;7.53;100.00
30967;BME280;17649;51.836;8.330;2024-01-25T04:26:16;102087.75;;;7.43;100.00
30967;BME280;17649;51.836;8.330;2024-01-25T04:29:17;102095.50;;;7.42;100.00
30967;BME280;17649;51.836;8.330;2024-01-25T04:32:17;102086.81;;;7.49;100.00
30967;BME280;17649;51.836;8.330;2024-01-25T04:35:17;102095.38;;;7.50;100.00
30967;BME280;17649;51.836;8.330;2024-01-25T04:38:17;102100.41;;;7.56;100.00
30967;BME280;17649;51.836;8.330;2024-01-25T04:41:18;102115.72;;;7.63;100.00
30967;BME280;17649;51.836;8.330;2024-01-25T04:44:19;102113.22;;;7.59;100.00
30967;BME280;17649;51.836;8.330;2024-01-25T04:47:19;102103.69;;;7.64;100.00
30967;BME280;17649;51.836;8.330;2024-01-25T04:50:19;102111.41;;;7.64;100.00
30967;BME280;17649;51.836;8.330;2024-01-25T04:53:19;102111.03;;;7.39;100.00
30967;BME280;17649;51.836;8.330;2024-01-25T04:56:20;102119.47;;;7.47;100.00
30967;BME280;17649;51.836;8.330;2024-01-25T04:59:20;102133.59;;;7.25;100.00
30967;BME280;17649;51.836;8.330;2024-01-25T05:02:20;102128.38;;;7.29;100.00
30967;BME280;17649;51.836;8.330;2024-01-25T05:05:21;102132.16;;;7.08;100.00
30967;BME280;17649;51.836;8.330;2024-01-25T05:08:21;102131.50;;;6.96;100.00
30967;BME280;17649;51.836;8.330;2024-01-25T05:11:21;102137.59;;;6.90;100.00
30967;BME280;17649;51.836;8.330;2024-01-25T05:14:21;102140.22;;;6.87;100.00
30967;BME280;17649;51.836;8.330;2024-01-25T05:17:22;102123.41;;;6.65;100.00
30967;BME280;17649;51.836;8.330;2024-01-25T05:20:22;102137.28;;;6.53;100.00
30967;BME280;17649;51.836;8.330;2024-01-25T05:23:22;102135.50;;;6.58;100.00
30967;BME280;17649;51.836;8.330;2024-01-25T05:26:22;102139.03;;;6.51;100.00
30967;BME280;17649;51.836;8.330;2024-01-25T05:29:23;102140.09;;;6.36;100.00
30967;BME280;17649;51.836;8.330;2024-01-25T05:32:23;102140.09;;;6.35;100.00
30967;BME280;17649;51.836;8.330;2024-01-25T05:35:23;102135.69;;;6.46;100.00
30967;BME280;17649;51.836;8.330;2024-01-25T05:38:23;102126.34;;;6.40;100.00
30967;BME280;17649;51.836;8.330;2024-01-25T05:41:24;102132.41;;;6.35;100.00
30967;BME280;17649;51.836;8.330;2024-01-25T05:44:24;102133.44;;;6.20;100.00
30967;BME280;17649;51.836;8.330;2024-01-25T05:47:25;102146.09;;;6.35;100.00
30967;BME280;17649;51.836;8.330;2024-01-25T05:50:25;102135.94;;;6.24;100.00
30967;BME280;17649;51.836;8.330;2024-01-25T05:53:25;102142.06;;;6.16;100.00
30967;BME280;17649;51.836;8.330;2024-01-25T05:56:26;102146.44;;;6.08;100.00
30967;BME280;17649;51.836;8.330;2024-01-25T05:59:26;102141.13;;;6.21;100.00
30967;BME280;17649;51.836;8.330;2024-01-25T06:02:27;102153.09;;;6.24;100.00
30967;BME280;17649;51.836;8.330;2024-01-25T06:05:28;102147.28;;;6.11;100.00
30967;BME280;17649;51.836;8.330;2024-01-25T06:08:28;102156.44;;;6.31;100.00
30967;BME280;17649;51.836;8.330;2024-01-25T06:11:28;102166.94;;;6.15;100.00
30967;BME280;17649;51.836;8.330;2024-01-25T06:14:28;102168.72;;;6.07;100.00
30967;BME280;17649;51.836;8.330;2024-01-25T06:17:30;102167.91;;;6.05;100.00
30967;BME280;17649;51.836;8.330;2024-01-25T06:20:30;102173.91;;;6.04;100.00
30967;BME280;17649;51.836;8.330;2024-01-25T06:23:30;102168.59;;;6.18;100.00
30967;BME280;17649;51.836;8.330;2024-01-25T06:26:31;102164.50;;;6.03;100.00
30967;BME280;17649;51.836;8.330;2024-01-25T06:29:31;102168.78;;;6.04;100.00
30967;BME280;17649;51.836;8.330;2024-01-25T06:32:31;102171.56;;;5.83;100.00
30967;BME280;17649;51.836;8.330;2024-01-25T06:35:32;102168.03;;;5.93;100.00
30967;BME280;17649;51.836;8.330;2024-01-25T06:38:32;102164.72;;;5.79;100.00
30967;BME280;17649;51.836;8.330;2024-01-25T06:41:32;102172.34;;;5.91;100.00
30967;BME280;17649;51.836;8.330;2024-01-25T06:44:33;102184.38;;;5.86;100.00
30967;BME280;17649;51.836;8.330;2024-01-25T06:47:33;102176.72;;;5.81;100.00
30967;BME280;17649;51.836;8.330;2024-01-25T06:50:33;102169.81;;;5.85;100.00
30967;BME280;17649;51.836;8.330;2024-01-25T06:53:33;102184.28;;;5.98;100.00
30967;BME280;17649;51.836;8.330;2024-01-25T06:56:34;102185.13;;;5.97;100.00
30967;BME280;17649;51.836;8.330;2024-01-25T06:59:34;102192.06;;;5.87;100.00
30967;BME280;17649;51.836;8.330;2024-01-25T07:02:35;102204.91;;;5.86;100.00
30967;BME280;17649;51.836;8.330;2024-01-25T07:05:35;102198.09;;;5.83;100.00
30967;BME280;17649;51.836;8.330;2024-01-25T07:08:35;102209.25;;;5.81;100.00
30967;BME280;17649;51.836;8.330;2024-01-25T07:11:35;102215.28;;;5.75;100.00
30967;BME280;17649;51.836;8.330;2024-01-25T07:14:36;102221.25;;;5.77;100.00
30967;BME280;17649;51.836;8.330;2024-01-25T07:17:36;102220.44;;;5.74;100.00
30967;BME280;17649;51.836;8.330;2024-01-25T07:20:38;102217.91;;;5.72;100.00
30967;BME280;17649;51.836;8.330;2024-01-25T07:23:39;102208.50;;;5.71;100.00
30967;BME280;17649;51.836;8.330;2024-01-25T07:26:39;102198.19;;;5.73;100.00
30967;BME280;17649;51.836;8.330;2024-01-25T07:29:39;102195.56;;;5.77;100.00
30967;BME280;17649;51.836;8.330;2024-01-25T07:32:39;102199.78;;;5.84;100.00
30967;BME280;17649;51.836;8.330;2024-01-25T07:35:42;102208.34;;;5.85;100.00
30967;BME280;17649;51.836;8.330;2024-01-25T07:38:45;102218.81;;;5.63;100.00
30967;BME280;17649;51.836;8.330;2024-01-25T07:41:49;102225.59;;;5.72;100.00
30967;BME280;17649;51.836;8.330;2024-01-25T07:44:50;102228.91;;;5.85;100.00
30967;BME280;17649;51.836;8.330;2024-01-25T07:47:50;102227.25;;;5.81;100.00
30967;BME280;17649;51.836;8.330;2024-01-25T07:50:50;102228.00;;;5.92;100.00
30967;BME280;17649;51.836;8.330;2024-01-25T07:53:50;102236.66;;;5.79;100.00
30967;BME280;17649;51.836;8.330;2024-01-25T07:56:50;102234.03;;;5.86;100.00
30967;BME280;17649;51.836;8.330;2024-01-25T07:59:51;102238.28;;;5.92;100.00
30967;BME280;17649;51.836;8.330;2024-01-25T08:02:51;102227.84;;;6.06;100.00
30967;BME280;17649;51.836;8.330;2024-01-25T08:05:51;102233.13;;;5.89;100.00
30967;BME280;17649;51.836;8.330;2024-01-25T08:08:52;102229.66;;;5.97;100.00
30967;BME280;17649;51.836;8.330;2024-01-25T08:11:52;102233.09;;;5.98;100.00
30967;BME280;17649;51.836;8.330;2024-01-25T08:14:52;102226.97;;;6.08;100.00
30967;BME280;17649;51.836;8.330;2024-01-25T08:17:52;102232.78;;;6.27;100.00
30967;BME280;17649;51.836;8.330;2024-01-25T08:20:53;102232.88;;;6.16;100.00
30967;BME280;17649;51.836;8.330;2024-01-25T08:23:53;102235.34;;;6.24;100.00
30967;BME280;17649;51.836;8.330;2024-01-25T08:26:54;102232.78;;;6.24;100.00
30967;BME280;17649;51.836;8.330;2024-01-25T08:29:55;102224.13;;;6.33;100.00
30967;BME280;17649;51.836;8.330;2024-01-25T08:32:55;102220.63;;;6.38;100.00
30967;BME280;17649;51.836;8.330;2024-01-25T08:35:56;102224.91;;;6.41;100.00
30967;BME280;17649;51.836;8.330;2024-01-25T08:38:56;102230.94;;;6.35;100.00
30967;BME280;17649;51.836;8.330;2024-01-25T08:41:56;102238.25;;;6.67;100.00
30967;BME280;17649;51.836;8.330;2024-01-25T08:45:00;102234.59;;;6.85;100.00
30967;BME280;17649;51.836;8.330;2024-01-25T08:48:02;102239.00;;;6.75;100.00
30967;BME280;17649;51.836;8.330;2024-01-25T08:51:02;102239.09;;;6.68;100.00
30967;BME280;17649;51.836;8.330;2024-01-25T08:54:04;102245.84;;;6.78;100.00
30967;BME280;17649;51.836;8.330;2024-01-25T08:57:04;102253.63;;;6.73;100.00
30967;BME280;17649;51.836;8.330;2024-01-25T09:00:05;102250.56;;;7.08;100.00
30967;BME280;17649;51.836;8.330;2024-01-25T09:03:10;102248.75;;;7.13;100.00
30967;BME280;17649;51.836;8.330;2024-01-25T09:06:10;102255.47;;;7.24;100.00
30967;BME280;17649;51.836;8.330;2024-01-25T09:09:10;102255.31;;;7.34;100.00
30967;BME280;17649;51.836;8.330;2024-01-25T09:12:12;102256.31;;;7.24;100.00
30967;BME280;17649;51.836;8.330;2024-01-25T09:15:13;102263.13;;;7.28;100.00
30967;BME280;17649;51.836;8.330;2024-01-25T09:18:13;102272.53;;;7.31;100.00
30967;BME280;17649;51.836;8.330;2024-01-25T09:21:14;102275.84;;;7.39;100.00
30967;BME280;17649;51.836;8.330;2024-01-25T09:24:14;102276.56;;;7.48;100.00
30967;BME280;17649;51.836;8.330;2024-01-25T09:27:14;102271.78;;;7.78;100.00
30967;BME280;17649;51.836;8.330;2024-01-25T09:30:14;102275.34;;;7.69;100.00
30967;BME280;17649;51.836;8.330;2024-01-25T09:33:15;102273.03;;;7.53;100.00
30967;BME280;17649;51.836;8.330;2024-01-25T09:36:16;102286.94;;;7.42;100.00
30967;BME280;17649;51.836;8.330;2024-01-25T09:39:17;102283.97;;;7.67;100.00
30967;BME280;17649;51.836;8.330;2024-01-25T09:42:18;102291.75;;;7.64;100.00
30967;BME280;17649;51.836;8.330;2024-01-25T09:45:18;102295.09;;;7.69;100.00
30967;BME280;17649;51.836;8.330;2024-01-25T09:48:19;102288.44;;;7.56;100.00
30967;BME280;17649;51.836;8.330;2024-01-25T09:51:20;102293.47;;;7.65;100.00
30967;BME280;17649;51.836;8.330;2024-01-25T09:54:20;102292.16;;;7.92;100.00
30967;BME280;17649;51.836;8.330;2024-01-25T09:57:22;102291.13;;;8.00;100.00
30967;BME280;17649;51.836;8.330;2024-01-25T10:00:24;102307.25;;;8.12;100.00
30967;BME280;17649;51.836;8.330;2024-01-25T10:03:24;102295.94;;;8.20;100.00
30967;BME280;17649;51.836;8.330;2024-01-25T10:06:24;102303.50;;;8.28;100.00
30967;BME280;17649;51.836;8.330;2024-01-25T10:09:24;102305.69;;;8.04;100.00
30967;BME280;17649;51.836;8.330;2024-01-25T10:12:25;102305.34;;;8.23;100.00
30967;BME280;17649;51.836;8.330;2024-01-25T10:15:26;102307.03;;;8.24;100.00
30967;BME280;17649;51.836;8.330;2024-01-25T10:18:26;102309.97;;;8.02;100.00
30967;BME280;17649;51.836;8.330;2024-01-25T10:21:26;102309.97;;;8.02;100.00
30967;BME280;17649;51.836;8.330;2024-01-25T10:24:27;102310.09;;;7.96;100.00
30967;BME280;17649;51.836;8.330;2024-01-25T10:27:28;102300.53;;;8.03;100.00
30967;BME280;17649;51.836;8.330;2024-01-25T10:30:29;102303.19;;;7.98;100.00
30967;BME280;17649;51.836;8.330;2024-01-25T10:33:31;102297.47;;;8.29;100.00
30967;BME280;17649;51.836;8.330;2024-01-25T10:36:31;102289.44;;;8.46;100.00
30967;BME280;17649;51.836;8.330;2024-01-25T10:39:33;102288.38;;;8.56;100.00
30967;BME280;17649;51.836;8.330;2024-01-25T10:42:33;102279.25;;;8.81;100.00
30967;BME280;17649;51.836;8.330;2024-01-25T10:45:34;102293.88;;;8.82;100.00
30967;BME280;17649;51.836;8.330;2024-01-25T10:48:34;102289.34;;;8.92;100.00
30967;BME280;17649;51.836;8.330;2024-01-25T10:51:34;102287.97;;;8.76;100.00
30967;BME280;17649;51.836;8.330;2024-01-25T10:54:35;102298.00;;;8.89;100.00
30967;BME280;17649;51.836;8.330;2024-01-25T10:57:39;102295.38;;;8.91;100.00
30967;BME280;17649;51.836;8.330;2024-01-25T11:00:40;102300.72;;;8.83;100.00
30967;BME280;17649;51.836;8.330;2024-01-25T11:03:40;102286.94;;;8.84;100.00
30967;BME280;17649;51.836;8.330;2024-01-25T11:06:44;102281.50;;;8.56;100.00
30967;BME280;17649;51.836;8.330;2024-01-25T11:09:45;102282.03;;;8.72;100.00
30967;BME280;17649;51.836;8.330;2024-01-25T11:12:55;102287.81;;;8.42;100.00
30967;BME280;17649;51.836;8.330;2024-01-25T11:15:56;102282.91;;;8.26;100.00
30967;BME280;17649;51.836;8.330;2024-01-25T11:18:57;102283.84;;;8.22;100.00
30967;BME280;17649;51.836;8.330;2024-01-25T11:22:06;102275.34;;;8.19;100.00
30967;BME280;17649;51.836;8.330;2024-01-25T11:25:19;102273.19;;;8.42;100.00
30967;BME280;17649;51.836;8.330;2024-01-25T11:28:20;102266.47;;;8.33;100.00
30967;BME280;17649;51.836;8.330;2024-01-25T11:31:21;102266.00;;;8.12;100.00
30967;BME280;17649;51.836;8.330;2024-01-25T11:34:22;102263.13;;;8.27;100.00
30967;BME280;17649;51.836;8.330;2024-01-25T11:37:23;102262.16;;;8.35;100.00
30967;BME280;17649;51.836;8.330;2024-01-25T11:40:23;102250.97;;;8.32;100.00
30967;BME280;17649;51.836;8.330;2024-01-25T11:43:23;102251.84;;;8.35;100.00
30967;BME280;17649;51.836;8.330;2024-01-25T11:46:24;102250.22;;;8.72;100.00
30967;BME280;17649;51.836;8.330;2024-01-25T11:49:24;102245.53;;;8.89;100.00
30967;BME280;17649;51.836;8.330;2024-01-25T11:52:25;102245.97;;;9.06;100.00
30967;BME280;17649;51.836;8.330;2024-01-25T11:55:26;102248.97;;;9.26;100.00
30967;BME280;17649;51.836;8.330;2024-01-25T11:58:26;102244.94;;;9.15;100.00
30967;BME280;17649;51.836;8.330;2024-01-25T12:01:27;102249.81;;;9.27;100.00
30967;BME280;17649;51.836;8.330;2024-01-25T12:04:28;102243.81;;;9.26;100.00
30967;BME280;17649;51.836;8.330;2024-01-25T12:07:31;102241.81;;;9.38;100.00
30967;BME280;17649;51.836;8.330;2024-01-25T12:10:32;102233.84;;;9.11;100.00
30967;BME280;17649;51.836;8.330;2024-01-25T12:13:35;102230.84;;;8.91;100.00
30967;BME280;17649;51.836;8.330;2024-01-25T12:16:35;102234.13;;;8.99;100.00
30967;BME280;17649;51.836;8.330;2024-01-25T12:19:36;102238.28;;;9.42;100.00
30967;BME280;17649;51.836;8.330;2024-01-25T12:22:36;102239.66;;;9.55;100.00
30967;BME280;17649;51.836;8.330;2024-01-25T12:25:40;102239.56;;;9.24;100.00
30967;BME280;17649;51.836;8.330;2024-01-25T12:28:41;102242.09;;;9.61;100.00
30967;BME280;17649;51.836;8.330;2024-01-25T12:31:41;102235.53;;;9.80;100.00
30967;BME280;17649;51.836;8.330;2024-01-25T12:34:41;102225.84;;;9.56;100.00
30967;BME280;17649;51.836;8.330;2024-01-25T12:37:42;102225.19;;;9.48;100.00
30967;BME280;17649;51.836;8.330;2024-01-25T12:40:43;102219.81;;;9.21;100.00
30967;BME280;17649;51.836;8.330;2024-01-25T12:43:43;102218.19;;;9.17;100.00
30967;BME280;17649;51.836;8.330;2024-01-25T12:46:43;102211.94;;;9.27;100.00
30967;BME280;17649;51.836;8.330;2024-01-25T12:49:44;102207.72;;;9.23;100.00
30967;BME280;17649;51.836;8.330;2024-01-25T12:52:45;102191.22;;;9.29;100.00
30967;BME280;17649;51.836;8.330;2024-01-25T12:55:45;102189.69;;;9.56;100.00
30967;BME280;17649;51.836;8.330;2024-01-25T12:58:45;102186.38;;;9.49;100.00
30967;BME280;17649;51.836;8.330;2024-01-25T13:01:46;102184.03;;;9.74;100.00
30967;BME280;17649;51.836;8.330;2024-01-25T13:04:46;102189.44;;;9.98;100.00
30967;BME280;17649;51.836;8.330;2024-01-25T13:07:46;102190.13;;;9.72;100.00
30967;BME280;17649;51.836;8.330;2024-01-25T13:10:46;102187.06;;;9.23;100.00
30967;BME280;17649;51.836;8.330;2024-01-25T13:13:47;102192.69;;;9.04;100.00
30967;BME280;17649;51.836;8.330;2024-01-25T13:16:47;102198.91;;;8.96;100.00
30967;BME280;17649;51.836;8.330;2024-01-25T13:19:48;102197.50;;;8.82;100.00
30967;BME280;17649;51.836;8.330;2024-01-25T13:22:48;102196.00;;;9.10;100.00
30967;BME280;17649;51.836;8.330;2024-01-25T13:25:48;102188.28;;;9.07;100.00
30967;BME280;17649;51.836;8.330;2024-01-25T13:28:49;102185.78;;;9.04;100.00
30967;BME280;17649;51.836;8.330;2024-01-25T13:31:49;102169.59;;;8.98;100.00
30967;BME280;17649;51.836;8.330;2024-01-25T13:34:49;102193.25;;;9.50;100.00
30967;BME280;17649;51.836;8.330;2024-01-25T13:37:49;102178.94;;;9.71;100.00
30967;BME280;17649;51.836;8.330;2024-01-25T13:40:50;102183.97;;;9.76;100.00
30967;BME280;17649;51.836;8.330;2024-01-25T13:43:50;102182.56;;;9.95;100.00
30967;BME280;17649;51.836;8.330;2024-01-25T13:46:51;102193.38;;;9.78;100.00
30967;BME280;17649;51.836;8.330;2024-01-25T13:49:51;102189.09;;;9.77;100.00
30967;BME280;17649;51.836;8.330;2024-01-25T13:52:52;102188.28;;;9.75;100.00
30967;BME280;17649;51.836;8.330;2024-01-25T13:55:53;102189.47;;;9.30;100.00
30967;BME280;17649;51.836;8.330;2024-01-25T13:58:53;102183.13;;;9.75;100.00
30967;BME280;17649;51.836;8.330;2024-01-25T14:01:53;102178.50;;;10.18;100.00
30967;BME280;17649;51.836;8.330;2024-01-25T14:04:54;102179.50;;;9.82;100.00
30967;BME280;17649;51.836;8.330;2024-01-25T14:07:54;102185.72;;;9.75;100.00
30967;BME280;17649;51.836;8.330;2024-01-25T14:10:54;102190.53;;;9.56;100.00
30967;BME280;17649;51.836;8.330;2024-01-25T14:13:55;102189.44;;;9.31;100.00
30967;BME280;17649;51.836;8.330;2024-01-25T14:16:55;102192.47;;;9.13;100.00
30967;BME280;17649;51.836;8.330;2024-01-25T14:19:55;102192.47;;;9.13;100.00
30967;BME280;17649;51.836;8.330;2024-01-25T14:22:55;102188.81;;;9.21;100.00
30967;BME280;17649;51.836;8.330;2024-01-25T14:25:56;102183.88;;;9.12;100.00
30967;BME280;17649;51.836;8.330;2024-01-25T14:28:56;102183.75;;;9.17;100.00
30967;BME280;17649;51.836;8.330;2024-01-25T14:31:56;102180.38;;;9.15;100.00
30967;BME280;17649;51.836;8.330;2024-01-25T14:34:57;102186.31;;;9.18;100.00
30967;BME280;17649;51.836;8.330;2024-01-25T14:37:57;102180.81;;;8.96;100.00
30967;BME280;17649;51.836;8.330;2024-01-25T14:40:57;102181.06;;;9.21;100.00
30967;BME280;17649;51.836;8.330;2024-01-25T14:43:57;102178.00;;;9.06;100.00
30967;BME280;17649;51.836;8.330;2024-01-25T14:46:59;102181.84;;;8.89;100.00
30967;BME280;17649;51.836;8.330;2024-01-25T14:50:00;102171.22;;;9.02;100.00
30967;BME280;17649;51.836;8.330;2024-01-25T14:53:00;102176.09;;;9.14;100.00
30967;BME280;17649;51.836;8.330;2024-01-25T14:56:00;102175.97;;;9.18;100.00
30967;BME280;17649;51.836;8.330;2024-01-25T14:59:01;102176.25;;;9.08;100.00
30967;BME280;17649;51.836;8.330;2024-01-25T15:02:02;102170.38;;;9.01;100.00
30967;BME280;17649;51.836;8.330;2024-01-25T15:05:03;102160.94;;;9.00;100.00
30967;BME280;17649;51.836;8.330;2024-01-25T15:08:04;102163.69;;;8.94;100.00
30967;BME280;17649;51.836;8.330;2024-01-25T15:11:04;102162.50;;;9.06;100.00
30967;BME280;17649;51.836;8.330;2024-01-25T15:14:04;102164.13;;;9.11;100.00
30967;BME280;17649;51.836;8.330;2024-01-25T15:17:05;102154.00;;;9.02;100.00
30967;BME280;17649;51.836;8.330;2024-01-25T15:20:05;102144.63;;;8.98;100.00
30967;BME280;17649;51.836;8.330;2024-01-25T15:23:05;102152.84;;;9.14;100.00
30967;BME280;17649;51.836;8.330;2024-01-25T15:26:07;102155.34;;;9.17;100.00
30967;BME280;17649;51.836;8.330;2024-01-25T15:29:08;102152.66;;;9.21;100.00
30967;BME280;17649;51.836;8.330;2024-01-25T15:32:08;102145.97;;;9.14;100.00
30967;BME280;17649;51.836;8.330;2024-01-25T15:35:08;102151.28;;;9.07;100.00
30967;BME280;17649;51.836;8.330;2024-01-25T15:38:08;102150.56;;;9.02;100.00
30967;BME280;17649;51.836;8.330;2024-01-25T15:41:09;102147.25;;;8.96;100.00
30967;BME280;17649;51.836;8.330;2024-01-25T15:44:10;102149.09;;;8.91;100.00